Le Roy, West Virginia
Current Conditions -  °F | °C
As of 1:35 PM on Monday 26 Jan 2015 (Local Time) from K3I2 Reporting Station
Light Snow Light Snow  
Wind Chill: 25°   Ceiling: 1500
Heat Index: 30°   Visibility: 5mi
Dew Point: 27°   Wind: 5mph
Humidity: 86%   Direction: 270°W
Pressure: 29.82"   Gusts: NA
Location:  38.92°N, 81.55°W
Report Text: K3I2 261835Z AUTO 27004KT 5SM -SN OVC015 M01/M03 A2982 RMK AO2
Loading
Personal Weather Stations






























Interactive Weather Map New forecast layout! Learn more

10-Day Weather Forecast

Advertisements
Track Severe Weather on mobile